x

Yucatan Basin - 120 Nm Ese Of Cozumel, Mx (42056) Wave Buoy

11:50 - Sat 28th Mar 2015 All times are CST. -6 hours from GMT.

  • Sig Wave height 6.9ft
  • Swell Direction
  • Peak Period 10s
  • Average Period 6s
  • Wind
    18mph, 22mph gusts
  • Sea Temp 81°f
  • Luft Temp 79°f
  • Sea Pressure 1018.7mb
  •  Yucatan Basin - 120 Nm Ese Of Cozumel, Mx
  •  Yucatan Basin - 120 Nm Ese Of Cozumel, Mx

More Historic Weather Station data

Upgrade to MSW Pro to gain access to the past 30 days of data for over 8000 Wavebouys and Weather Stations around the globe.

Join Pro

Comparision Forecast

View Surf forecast
   
Sa 03/28 11:50 7ft 10s 6s 18 22 mph 1018.7mb 81f 79f
10:50 6.5ft 10s 6s 18 20 mph 1019mb 81f 79f
9:50 7ft 10s 6s 18 22 mph 1018.9mb 81f 78f
8:50 6.5ft 8s 6s 20 25 mph 1018.5mb 81f 77f
7:50 6ft 8s 6s 20 25 mph 1018.1mb 81f 77f
6:50 6ft 9s 6s 22 27 mph 1018mb 81f 76f
5:50 6ft 8s 6s 13 18 mph 1017.5mb 81f 75f
4:50 5ft 8s 6s 16 20 mph 1017.2mb 81f 74f
3:50 5ft 7s 6s 11 13 mph 1016.7mb 81f 76f
2:50 4.5ft 7s 5s 11 16 mph 1016.2mb 81f 75f
1:50 3.5ft 4s 4s 11 16 mph 1017mb 81f 76f
12:50 2.5ft 7s 4s 22 27 mph 1016.6mb 81f 77f
11:50 2.5ft 6s 4s 13
mph
1017.4mb 81f 79f
10:50 2.5ft 5s 5s 13 16 mph 1017.8mb 81f 79f
9:50 2.5ft 5s 5s 7 9 mph 1017.9mb 81f 81f
8:50 2.5ft 6s 5s 4
mph
1017.6mb 81f 81f
7:50 2.5ft 6s 5s 7 9 mph 1017mb 81f 80f
6:50 2.5ft 6s 5s 4 7 mph 1016.6mb 81f 80f
5:50 2.5ft 6s 5s 4 7 mph 1016.2mb 81f 80f
4:50 2.5ft 6s 5s 4
mph
1015.4mb 81f 80f
3:50 2.5ft 6s 5s 4 7 mph 1014.9mb 81f 80f
2:50 2.5ft 6s 5s 4 7 mph 1014.2mb 81f 80f
1:50 3ft 6s 5s 4 7 mph 1014.3mb 81f 80f
12:50 3ft 6s 5s 4 7 mph 1014.8mb 81f 80f
Fr 03/27 11:50 3ft 7s 5s 7 9 mph 1015.3mb 81f 80f
10:50 3ft 6s 5s 4
mph
1016.2mb 81f 81f
9:50 3.5ft 6s 5s 4
mph
1016.3mb 81f 81f
8:50 3.5ft 6s 5s 4 7 mph 1016.1mb 81f 81f
7:50 3.5ft 6s 5s 7
mph
1015.2mb 81f 81f
6:50 3.5ft 6s 5s 4 7 mph 1014.7mb 81f 81f
5:50 3.5ft 6s 5s 7 9 mph 1013.5mb 81f 81f
4:50 4ft 6s 5s 9 11 mph 1012.9mb 82f 81f
3:50 3.5ft 6s 5s 9 11 mph 1012.6mb 82f 81f
2:50 4ft 6s 5s 9 11 mph 1012.9mb 82f 82f
1:50 4ft 6s 5s 11 13 mph 1013.6mb 81f 82f
12:50 4.5ft 6s 5s 11 13 mph 1014.3mb 81f 81f
11:50 4.5ft 6s 5s 11 13 mph 1014.7mb 81f 81f
10:50 4.5ft 6s 5s 13 16 mph 1015mb 81f 81f
9:50 4.5ft 6s 5s 13 18 mph 1015.1mb 81f 81f
8:50 4.5ft 6s 5s 16 18 mph 1014.4mb 81f 81f
7:50 4.5ft 6s 5s 18 20 mph 1013.5mb 81f 81f
6:50 4.5ft 6s 5s 18 20 mph 1013.1mb 81f 81f
5:50 4.5ft 6s 5s 18 22 mph 1012.2mb 81f 81f
4:50 4ft 5s 4s 18 20 mph 1011.8mb 81f 81f
3:50 3.5ft 6s 4s 18 20 mph 1011.5mb 81f 80f
2:50 4ft 6s 4s 18 22 mph 1011.3mb 81f 80f
1:50 3.5ft 5s 4s 18 22 mph 1011.5mb 81f 81f
12:50 3.5ft 5s 4s 16 18 mph 1012.5mb 81f 81f
Do 03/26 11:50 3ft 6s 4s 13 16 mph 1013.5mb 81f 81f
10:50 3.5ft 5s 4s 16 18 mph 1013.7mb 81f 81f
9:50 3.5ft 5s 4s 16 18 mph 1013.9mb 81f 81f
8:50 3.5ft 5s 4s 13 16 mph 1013.7mb 81f 81f
7:50 3ft 5s 4s 16 20 mph 1012.9mb 81f 81f
6:50 3ft 5s 4s 18 20 mph 1012.6mb 81f 81f
5:50 3.5ft 5s 4s 16 18 mph 1012.6mb 81f 81f
4:50 3ft 5s 4s 16 18 mph 1012.3mb 81f 81f
3:50 2.5ft 4s 4s 13 16 mph 1012.4mb 81f 81f
2:50 2.5ft 4s 4s 13 16 mph 1012.5mb 81f 81f
1:50 2.5ft 4s 4s 16 20 mph 1012.9mb 81f 81f
12:50 2.5ft 4s 4s 18 20 mph 1013.7mb 81f 81f
11:50 2.5ft 4s 4s 16 18 mph 1014.7mb 81f 81f
10:50 2.5ft 3s 4s 16 18 mph 1015.6mb 81f 81f
9:50 2.5ft 3s 4s 18 20 mph 1015.8mb 81f 81f
8:50 2.5ft 4s 4s 16 18 mph 1016.1mb 81f 81f
7:50 2ft 4s 4s 13 16 mph 1015.9mb 81f 80f
6:50 2ft 5s 4s 13 16 mph 1015.3mb 81f 80f
5:50 2ft 4s 4s 13 18 mph 1014.5mb 81f 80f
4:50 2ft 4s 4s 11 16 mph 1014.2mb 81f 80f
3:50 2.5ft 4s 4s 11 13 mph 1014mb 81f 80f
2:50 2ft 5s 4s 11 13 mph 1014.1mb 81f 80f
1:50 2.5ft 4s 4s 11 13 mph 1014.5mb 81f 80f
12:50 2ft 4s 4s 13 16 mph 1014.9mb 81f 80f
Mi 03/25 11:50 2.5ft 5s 4s 13 16 mph 1015.7mb 81f 80f
10:50 2.5ft 5s 4s 13 16 mph 1016.2mb 81f 80f
9:50 2.5ft 5s 4s 16 18 mph 1016.6mb 81f 80f
8:50 2.5ft 4s 4s 13 18 mph 1016.4mb 81f 80f
7:50 2.5ft 4s 4s 16 18 mph 1016mb 81f 80f
6:50 2.5ft 4s 4s 13 16 mph 1015.9mb 81f 80f
5:50 2ft 4s 4s 13 16 mph 1015.8mb 81f 80f
4:50 2ft 4s 4s 11 13 mph 1015.8mb 81f 80f
3:50 2.5ft 4s 4s 11 13 mph 1015.6mb 81f 80f
2:50 2ft 4s 4s 11 13 mph 1015.8mb 81f 80f
1:50 2.5ft 4s 4s 11 13 mph 1016.1mb 81f 80f
12:50 2.5ft 4s 4s 13
mph
1016.6mb 81f 80f
11:50 2ft 4s 4s 13 18 mph 1017.2mb 81f 80f
10:50 2.5ft 4s 4s 13 16 mph 1018mb 81f 80f
9:50 2.5ft 4s 4s 11 13 mph 1018.1mb 81f 80f
8:50 2.5ft 4s 4s 13 16 mph 1017.7mb 81f 80f
7:50 2.5ft 3s 4s 13 18 mph 1017.4mb 81f 80f
6:50 2ft 4s 4s 16 18 mph 1016.7mb 81f 80f